createdAt,value
2022-12-01T00:00:32.842Z,0
2022-12-01T00:01:32.797Z,0
2022-12-01T00:02:33.445Z,0
2022-12-01T00:03:32.946Z,0
2022-12-01T00:04:32.972Z,0
2022-12-01T00:05:32.940Z,0
2022-12-01T00:06:32.991Z,0
2022-12-01T00:07:33.020Z,0
2022-12-01T00:08:32.939Z,0
2022-12-01T00:09:32.822Z,0
2022-12-01T00:10:32.820Z,0
2022-12-01T00:11:32.771Z,0
2022-12-01T00:12:32.824Z,0
2022-12-01T00:13:32.856Z,0
2022-12-01T00:14:32.806Z,0
2022-12-01T00:15:32.883Z,0
2022-12-01T00:16:32.907Z,0
2022-12-01T00:17:32.815Z,0
2022-12-01T00:18:32.828Z,0
2022-12-01T00:19:32.792Z,0
2022-12-01T00:20:32.830Z,0
2022-12-01T00:21:32.802Z,0
2022-12-01T00:22:32.814Z,0
2022-12-01T00:23:32.779Z,0
2022-12-01T00:24:32.796Z,0
2022-12-01T00:25:32.924Z,0
2022-12-01T00:26:32.832Z,0
2022-12-01T00:27:32.796Z,0
2022-12-01T00:28:32.810Z,0
2022-12-01T00:29:32.829Z,0
2022-12-01T00:30:32.851Z,0
2022-12-01T00:31:32.808Z,0
2022-12-01T00:32:32.798Z,0
2022-12-01T00:33:32.790Z,0
2022-12-01T00:34:32.814Z,0
2022-12-01T00:35:32.823Z,0
2022-12-01T00:36:32.823Z,0
2022-12-01T00:37:32.796Z,0
2022-12-01T00:38:32.813Z,0
2022-12-01T00:39:32.954Z,0
2022-12-01T00:40:32.803Z,0
2022-12-01T00:41:32.809Z,0
2022-12-01T00:42:32.804Z,0
2022-12-01T00:43:32.778Z,0
2022-12-01T00:44:32.897Z,0
2022-12-01T00:45:33.002Z,0
2022-12-01T00:46:32.930Z,0
2022-12-01T00:47:32.799Z,0
2022-12-01T00:48:32.787Z,0
2022-12-01T00:49:32.789Z,0
2022-12-01T00:50:32.814Z,0
2022-12-01T00:51:32.811Z,0
2022-12-01T00:52:32.806Z,0
2022-12-01T00:53:32.793Z,0
2022-12-01T00:54:32.810Z,0
2022-12-01T00:55:32.875Z,0
2022-12-01T00:56:32.856Z,0
2022-12-01T00:57:32.795Z,0
2022-12-01T00:58:32.813Z,0
2022-12-01T00:59:32.811Z,0
2022-12-01T01:00:32.838Z,0
2022-12-01T01:01:32.898Z,0
2022-12-01T01:02:32.996Z,0
2022-12-01T01:03:32.779Z,0
2022-12-01T01:04:32.827Z,0
2022-12-01T01:05:32.803Z,0
2022-12-01T01:06:32.846Z,0
2022-12-01T01:07:32.849Z,0
2022-12-01T01:08:32.802Z,0
2022-12-01T01:09:32.776Z,0
2022-12-01T01:10:32.810Z,0
2022-12-01T01:11:32.841Z,0
2022-12-01T01:12:32.825Z,0
2022-12-01T01:13:32.783Z,0
2022-12-01T01:14:32.793Z,0
2022-12-01T01:15:32.851Z,0
2022-12-01T01:16:32.971Z,0
2022-12-01T01:17:32.910Z,0
2022-12-01T01:18:32.836Z,0
2022-12-01T01:19:32.837Z,0
2022-12-01T01:20:32.791Z,0
2022-12-01T01:21:32.791Z,0
2022-12-01T01:22:32.797Z,0
2022-12-01T01:23:32.828Z,0
2022-12-01T01:24:32.828Z,0
2022-12-01T01:25:32.798Z,0
2022-12-01T01:26:32.788Z,0
2022-12-01T01:27:32.813Z,0
2022-12-01T01:28:32.835Z,0
2022-12-01T01:29:32.793Z,0
2022-12-01T01:30:32.900Z,0
2022-12-01T01:31:32.818Z,0
2022-12-01T01:32:32.855Z,0
2022-12-01T01:33:32.794Z,0
2022-12-01T01:34:32.790Z,0
2022-12-01T01:35:32.805Z,0
2022-12-01T01:36:32.814Z,0
2022-12-01T01:37:32.814Z,0
2022-12-01T01:38:32.828Z,0
2022-12-01T01:39:32.800Z,0
2022-12-01T01:40:32.921Z,0
2022-12-01T01:41:32.977Z,0
2022-12-01T01:42:32.979Z,0
2022-12-01T01:43:32.966Z,0
2022-12-01T01:44:32.904Z,0
2022-12-01T01:45:32.898Z,0
2022-12-01T01:46:33.009Z,0
2022-12-01T01:47:32.958Z,0
2022-12-01T01:48:33.155Z,0
2022-12-01T01:49:32.784Z,0
2022-12-01T01:50:32.812Z,0
2022-12-01T01:51:32.818Z,0
2022-12-01T01:52:32.809Z,0
2022-12-01T01:53:32.794Z,0
2022-12-01T01:54:32.856Z,0
2022-12-01T01:55:32.801Z,0
2022-12-01T01:56:32.840Z,0
2022-12-01T01:57:32.782Z,0
2022-12-01T01:58:32.892Z,0
2022-12-01T01:59:32.823Z,0
2022-12-01T02:00:32.841Z,0
2022-12-01T02:01:32.892Z,0
2022-12-01T02:02:32.971Z,0
2022-12-01T02:03:32.818Z,0
2022-12-01T02:04:32.788Z,0
2022-12-01T02:05:32.874Z,0
2022-12-01T02:06:32.816Z,0
2022-12-01T02:07:32.869Z,0
2022-12-01T02:08:32.814Z,0
2022-12-01T02:09:32.770Z,0
2022-12-01T02:10:32.812Z,0
2022-12-01T02:11:32.804Z,0
2022-12-01T02:12:32.818Z,0
2022-12-01T02:13:32.808Z,0
2022-12-01T02:14:32.809Z,0
2022-12-01T02:15:32.806Z,0
2022-12-01T02:16:33.007Z,0
2022-12-01T02:17:35.300Z,0
2022-12-01T02:18:32.785Z,0
2022-12-01T02:19:32.782Z,0
2022-12-01T02:20:32.792Z,0
2022-12-01T02:21:32.850Z,0
2022-12-01T02:22:32.813Z,0
2022-12-01T02:23:32.783Z,0
2022-12-01T02:24:32.804Z,0
2022-12-01T02:25:32.789Z,0
2022-12-01T02:26:32.792Z,0
2022-12-01T02:27:32.797Z,0
2022-12-01T02:28:32.803Z,0
2022-12-01T02:29:32.842Z,0
2022-12-01T02:30:32.954Z,0
2022-12-01T02:31:32.768Z,0
2022-12-01T02:32:32.952Z,0
2022-12-01T02:33:32.788Z,0
2022-12-01T02:34:32.804Z,0
2022-12-01T02:35:32.816Z,0
2022-12-01T02:36:32.826Z,0
2022-12-01T02:37:32.786Z,0
2022-12-01T02:38:32.808Z,0
2022-12-01T02:39:32.803Z,0
2022-12-01T02:40:32.807Z,0
2022-12-01T02:41:32.791Z,0
2022-12-01T02:42:32.788Z,0
2022-12-01T02:43:32.799Z,0
2022-12-01T02:44:32.786Z,0
2022-12-01T02:45:32.795Z,0
2022-12-01T02:46:32.857Z,0
2022-12-01T02:47:32.854Z,0
2022-12-01T02:48:32.800Z,0
2022-12-01T02:49:32.771Z,0
2022-12-01T02:50:32.820Z,0
2022-12-01T02:51:32.807Z,0
2022-12-01T02:52:32.790Z,0
2022-12-01T02:53:32.752Z,0
2022-12-01T02:54:32.793Z,0
2022-12-01T02:55:32.887Z,0
2022-12-01T02:56:32.833Z,0
2022-12-01T02:57:32.748Z,0
2022-12-01T02:58:32.802Z,0
2022-12-01T02:59:32.795Z,0
2022-12-01T03:00:32.946Z,0
2022-12-01T03:01:32.806Z,0
2022-12-01T03:02:32.818Z,0
2022-12-01T03:03:32.812Z,0
2022-12-01T03:04:32.814Z,0
2022-12-01T03:05:32.771Z,0
2022-12-01T03:06:32.845Z,0
2022-12-01T03:07:32.846Z,0
2022-12-01T03:08:32.758Z,0
2022-12-01T03:09:32.762Z,0
2022-12-01T03:10:32.809Z,0
2022-12-01T03:11:33.011Z,0
2022-12-01T03:12:32.803Z,0
2022-12-01T03:13:32.822Z,0
2022-12-01T03:14:32.809Z,0
2022-12-01T03:15:33.080Z,0
2022-12-01T03:16:32.863Z,0
2022-12-01T03:17:32.879Z,0
2022-12-01T03:18:32.840Z,0
2022-12-01T03:19:32.986Z,0
2022-12-01T03:20:32.951Z,0
2022-12-01T03:21:32.771Z,0
2022-12-01T03:22:32.945Z,0
2022-12-01T03:23:32.900Z,0
2022-12-01T03:24:32.914Z,0
2022-12-01T03:25:32.909Z,0
2022-12-01T03:26:32.905Z,0
2022-12-01T03:27:32.988Z,0
2022-12-01T03:28:32.853Z,0
2022-12-01T03:29:32.883Z,0
2022-12-01T03:30:32.863Z,0
2022-12-01T03:31:33.018Z,0
2022-12-01T03:32:32.960Z,0
2022-12-01T03:33:32.794Z,0
2022-12-01T03:34:32.799Z,0
2022-12-01T03:35:32.818Z,0
2022-12-01T03:36:32.822Z,0
2022-12-01T03:37:32.763Z,0
2022-12-01T03:38:32.768Z,0
2022-12-01T03:39:32.799Z,0
2022-12-01T03:40:32.906Z,0
2022-12-01T03:41:32.827Z,0
2022-12-01T03:42:32.892Z,0
2022-12-01T03:43:32.916Z,0
2022-12-01T03:44:32.799Z,0
2022-12-01T03:45:32.788Z,0
2022-12-01T03:46:32.870Z,0
2022-12-01T03:47:32.830Z,0
2022-12-01T03:48:32.804Z,0
2022-12-01T03:49:32.764Z,0
2022-12-01T03:50:32.784Z,0
2022-12-01T03:51:32.800Z,0
2022-12-01T03:52:32.783Z,0
2022-12-01T03:53:32.830Z,0
2022-12-01T03:54:32.812Z,0
2022-12-01T03:55:32.768Z,0
2022-12-01T03:56:32.790Z,0
2022-12-01T03:57:32.753Z,0
2022-12-01T03:58:32.796Z,0
2022-12-01T03:59:32.812Z,0
2022-12-01T04:00:32.987Z,0
2022-12-01T04:01:33.000Z,0
2022-12-01T04:02:32.881Z,0
2022-12-01T04:03:32.765Z,0
2022-12-01T04:04:32.787Z,0
2022-12-01T04:05:32.740Z,0
2022-12-01T04:06:32.784Z,0
2022-12-01T04:07:32.869Z,0
2022-12-01T04:08:32.836Z,0
2022-12-01T04:09:33.003Z,0
2022-12-01T04:10:32.778Z,0
2022-12-01T04:11:33.103Z,0
2022-12-01T04:12:32.784Z,0
2022-12-01T04:13:32.783Z,0
2022-12-01T04:14:32.775Z,0
2022-12-01T04:15:32.769Z,0
2022-12-01T04:16:32.824Z,0
2022-12-01T04:17:32.791Z,0
2022-12-01T04:18:32.784Z,0
2022-12-01T04:19:32.780Z,0
2022-12-01T04:20:32.782Z,0
2022-12-01T04:21:32.812Z,0
2022-12-01T04:22:32.781Z,0
2022-12-01T04:23:32.776Z,0
2022-12-01T04:24:32.759Z,0
2022-12-01T04:25:32.789Z,0
2022-12-01T04:26:32.780Z,0
2022-12-01T04:27:32.936Z,0
2022-12-01T04:28:32.776Z,0
2022-12-01T04:29:32.781Z,0
2022-12-01T04:30:32.798Z,0
2022-12-01T04:31:32.997Z,0
2022-12-01T04:32:32.768Z,0
2022-12-01T04:33:32.775Z,0
2022-12-01T04:34:32.797Z,0
2022-12-01T04:35:32.804Z,0
2022-12-01T04:36:32.796Z,0
2022-12-01T04:37:32.782Z,0
2022-12-01T04:38:32.822Z,0
2022-12-01T04:39:32.798Z,0
2022-12-01T04:40:32.761Z,0
2022-12-01T04:41:32.819Z,0
2022-12-01T04:42:32.786Z,0
2022-12-01T04:43:32.804Z,0
2022-12-01T04:44:34.963Z,0
2022-12-01T04:45:32.805Z,0
2022-12-01T04:46:32.834Z,0
2022-12-01T04:47:32.807Z,0
2022-12-01T04:48:32.757Z,0
2022-12-01T04:49:32.777Z,0
2022-12-01T04:50:32.770Z,0
2022-12-01T04:51:32.785Z,0
2022-12-01T04:52:35.365Z,0
2022-12-01T04:53:32.787Z,0
2022-12-01T04:54:32.802Z,0
2022-12-01T04:55:32.815Z,0
2022-12-01T04:56:32.772Z,0
2022-12-01T04:57:32.784Z,0
2022-12-01T04:58:32.779Z,0
2022-12-01T04:59:32.819Z,0
2022-12-01T05:00:32.872Z,0
2022-12-01T05:01:32.880Z,0
2022-12-01T05:02:32.858Z,0
2022-12-01T05:03:32.799Z,0
2022-12-01T05:04:32.776Z,0
2022-12-01T05:05:32.826Z,0
2022-12-01T05:06:32.791Z,0
2022-12-01T05:07:32.837Z,0
2022-12-01T05:08:32.789Z,0
2022-12-01T05:09:32.780Z,0
2022-12-01T05:10:32.769Z,0
2022-12-01T05:11:32.779Z,0
2022-12-01T05:12:32.758Z,0
2022-12-01T05:13:32.773Z,0
2022-12-01T05:14:32.762Z,0
2022-12-01T05:15:32.780Z,0
2022-12-01T05:16:33.003Z,0
2022-12-01T05:17:36.747Z,0
2022-12-01T05:18:32.793Z,0
2022-12-01T05:19:32.771Z,0
2022-12-01T05:20:32.814Z,0
2022-12-01T05:21:32.778Z,0
2022-12-01T05:23:03.934Z,0
2022-12-01T05:23:32.846Z,0
2022-12-01T05:24:32.768Z,0
2022-12-01T05:25:32.819Z,0
2022-12-01T05:26:32.758Z,0
2022-12-01T05:27:32.802Z,0
2022-12-01T05:28:32.739Z,0
2022-12-01T05:29:32.750Z,0
2022-12-01T05:30:32.773Z,0
2022-12-01T05:31:32.959Z,0
2022-12-01T05:32:32.742Z,0
2022-12-01T05:33:32.785Z,0
2022-12-01T05:34:32.767Z,0
2022-12-01T05:35:32.771Z,0
2022-12-01T05:36:32.783Z,0
2022-12-01T05:37:32.875Z,0
2022-12-01T05:38:32.803Z,0
2022-12-01T05:39:32.756Z,0
2022-12-01T05:40:32.755Z,0
2022-12-01T05:41:32.799Z,0
2022-12-01T05:42:32.795Z,0
2022-12-01T05:43:32.789Z,0
2022-12-01T05:44:32.772Z,0
2022-12-01T05:45:32.830Z,0
2022-12-01T05:46:32.778Z,0
2022-12-01T05:47:32.793Z,0
2022-12-01T05:48:32.743Z,0
2022-12-01T05:49:32.767Z,0
2022-12-01T05:50:32.833Z,0
2022-12-01T05:51:32.776Z,0
2022-12-01T05:52:32.753Z,0
2022-12-01T05:53:32.833Z,0
2022-12-01T05:54:32.826Z,0
2022-12-01T05:55:32.793Z,0
2022-12-01T05:56:32.772Z,0
2022-12-01T05:57:32.805Z,0
2022-12-01T05:58:32.770Z,0
2022-12-01T05:59:32.798Z,0
2022-12-01T06:00:32.727Z,0
2022-12-01T06:01:32.779Z,0
2022-12-01T06:02:32.784Z,0
2022-12-01T06:03:32.841Z,0
2022-12-01T06:04:32.778Z,0
2022-12-01T06:05:32.760Z,0
2022-12-01T06:06:32.772Z,0
2022-12-01T06:07:32.793Z,0
2022-12-01T06:08:32.763Z,0
2022-12-01T06:09:32.823Z,0
2022-12-01T06:10:32.740Z,0
2022-12-01T06:11:32.768Z,0
2022-12-01T06:12:32.829Z,0
2022-12-01T06:13:32.773Z,0
2022-12-01T06:14:32.919Z,0
2022-12-01T06:15:32.762Z,0
2022-12-01T06:16:32.833Z,0
2022-12-01T06:17:37.099Z,0
2022-12-01T06:18:32.762Z,0
2022-12-01T06:19:32.760Z,0
2022-12-01T06:20:32.758Z,0
2022-12-01T06:21:32.830Z,0
2022-12-01T06:22:32.734Z,0
2022-12-01T06:23:32.767Z,0
2022-12-01T06:24:32.757Z,0
2022-12-01T06:25:32.783Z,0
2022-12-01T06:26:32.747Z,0
2022-12-01T06:27:32.830Z,0
2022-12-01T06:28:32.770Z,0
2022-12-01T06:29:33.556Z,0
2022-12-01T06:30:32.775Z,0
2022-12-01T06:31:32.783Z,0
2022-12-01T06:32:32.769Z,0
2022-12-01T06:33:32.825Z,0
2022-12-01T06:34:32.742Z,0
2022-12-01T06:35:32.764Z,0
2022-12-01T06:36:32.752Z,0
2022-12-01T06:37:32.817Z,0
2022-12-01T06:38:32.743Z,0
2022-12-01T06:39:32.776Z,0
2022-12-01T06:40:33.861Z,0
2022-12-01T06:41:42.155Z,0
2022-12-01T06:42:46.074Z,0
2022-12-01T06:43:50.758Z,0
2022-12-01T06:44:54.115Z,0
2022-12-01T06:46:01.575Z,0
2022-12-01T06:47:02.097Z,0
2022-12-01T06:48:06.207Z,0
2022-12-01T06:49:10.075Z,0
2022-12-01T06:50:14.165Z,0
2022-12-01T06:51:18.085Z,0
2022-12-01T06:52:22.153Z,0
2022-12-01T06:53:26.103Z,0
2022-12-01T06:54:30.123Z,0
2022-12-01T06:55:32.756Z,0
2022-12-01T06:56:32.774Z,0
2022-12-01T06:57:32.780Z,0
2022-12-01T06:58:32.795Z,0
2022-12-01T06:59:32.746Z,0
2022-12-01T07:00:32.780Z,0
2022-12-01T07:01:33.042Z,0
2022-12-01T07:02:32.903Z,0
2022-12-01T07:03:32.725Z,0
2022-12-01T07:04:32.791Z,0
2022-12-01T07:05:32.788Z,0
2022-12-01T07:06:32.780Z,0
2022-12-01T07:07:32.808Z,0
2022-12-01T07:08:32.820Z,0
2022-12-01T07:09:32.784Z,0
2022-12-01T07:10:32.927Z,0
2022-12-01T07:11:32.772Z,0
2022-12-01T07:12:32.738Z,0
2022-12-01T07:13:33.892Z,0
2022-12-01T07:14:32.786Z,0
2022-12-01T07:15:32.852Z,0
2022-12-01T07:16:32.805Z,0
2022-12-01T07:17:32.798Z,0
2022-12-01T07:18:32.760Z,0
2022-12-01T07:19:32.860Z,0
2022-12-01T07:20:32.760Z,0
2022-12-01T07:21:32.767Z,0
2022-12-01T07:22:33.072Z,0
2022-12-01T07:23:32.790Z,0
2022-12-01T07:24:32.738Z,0
2022-12-01T07:25:32.809Z,0
2022-12-01T07:26:32.786Z,0
2022-12-01T07:27:32.815Z,0
2022-12-01T07:28:32.732Z,0
2022-12-01T07:29:32.761Z,0
2022-12-01T07:30:32.820Z,0
2022-12-01T07:31:32.833Z,0
2022-12-01T07:32:32.726Z,0
2022-12-01T07:33:32.782Z,0
2022-12-01T07:34:32.840Z,0
2022-12-01T07:35:32.786Z,0
2022-12-01T07:36:32.765Z,0
2022-12-01T07:37:32.758Z,0.36
2022-12-01T07:38:32.755Z,0
2022-12-01T07:39:32.801Z,0.36
2022-12-01T07:40:32.712Z,0.36
2022-12-01T07:41:32.813Z,0.85
2022-12-01T07:42:32.817Z,0.36
2022-12-01T07:43:32.811Z,0.36
2022-12-01T07:44:32.861Z,0
2022-12-01T07:45:32.748Z,0.36
2022-12-01T07:46:33.254Z,0.85
2022-12-01T07:47:32.760Z,0.85
2022-12-01T07:48:32.784Z,0.85
2022-12-01T07:49:32.759Z,0.36
2022-12-01T07:50:32.758Z,0.85
2022-12-01T07:51:32.783Z,0.36
2022-12-01T07:52:32.748Z,0.85
2022-12-01T07:53:32.766Z,0.85
2022-12-01T07:54:32.766Z,0.36
2022-12-01T07:55:32.781Z,1.22
2022-12-01T07:56:32.753Z,0.85
2022-12-01T07:57:32.874Z,2.08
2022-12-01T07:58:32.725Z,1.22
2022-12-01T07:59:32.778Z,1.71
2022-12-01T08:00:32.780Z,1.71
2022-12-01T08:01:32.895Z,0.85
2022-12-01T08:02:32.898Z,1.71
2022-12-01T08:03:32.805Z,1.71
2022-12-01T08:04:32.757Z,1.71
2022-12-01T08:05:32.796Z,2.57
2022-12-01T08:06:32.810Z,1.22
2022-12-01T08:07:32.797Z,2.57
2022-12-01T08:08:32.737Z,1.71
2022-12-01T08:09:32.765Z,2.08
2022-12-01T08:10:32.753Z,2.57
2022-12-01T08:11:32.861Z,2.08
2022-12-01T08:12:32.862Z,2.57
2022-12-01T08:13:32.815Z,2.57
2022-12-01T08:14:46.073Z,2.94
2022-12-01T08:15:50.096Z,2.08
2022-12-01T08:16:54.133Z,2.57
2022-12-01T08:17:58.102Z,2.08
2022-12-01T08:19:02.060Z,2.94
2022-12-01T08:20:06.123Z,2.94
2022-12-01T08:21:10.087Z,3.43
2022-12-01T08:22:14.070Z,3.79
2022-12-01T08:23:18.065Z,2.94
2022-12-01T08:24:22.119Z,2.94
2022-12-01T08:25:26.081Z,3.43
2022-12-01T08:26:30.086Z,2.94
2022-12-01T08:27:32.740Z,2.94
2022-12-01T08:28:32.772Z,2.94
2022-12-01T08:29:32.926Z,2.57
2022-12-01T08:30:32.751Z,1.71
2022-12-01T08:31:32.749Z,2.94
2022-12-01T08:32:32.751Z,2.57
2022-12-01T08:33:32.764Z,2.57
2022-12-01T08:34:32.755Z,2.94
2022-12-01T08:35:32.744Z,2.94
2022-12-01T08:36:32.910Z,2.94
2022-12-01T08:37:32.746Z,3.79
2022-12-01T08:38:32.766Z,4.28
2022-12-01T08:39:32.750Z,5.63
2022-12-01T08:40:32.787Z,4.77
2022-12-01T08:41:32.799Z,5.99
2022-12-01T08:42:32.767Z,6.48
2022-12-01T08:43:56.757Z,6.48
2022-12-01T08:44:32.925Z,5.99
2022-12-01T08:45:32.778Z,5.99
2022-12-01T08:46:32.901Z,6.85
2022-12-01T08:47:32.746Z,7.7
2022-12-01T08:48:32.830Z,7.34
2022-12-01T08:49:32.767Z,7.7
2022-12-01T08:50:32.764Z,8.19
2022-12-01T08:51:32.772Z,7.7
2022-12-01T08:52:32.726Z,7.7
2022-12-01T08:53:32.771Z,7.7
2022-12-01T08:54:32.790Z,7.7
2022-12-01T08:55:32.758Z,7.7
2022-12-01T08:56:32.727Z,7.34
2022-12-01T08:57:32.758Z,5.99
2022-12-01T08:58:32.773Z,5.14
2022-12-01T08:59:32.758Z,5.14
2022-12-01T09:00:32.737Z,4.28
2022-12-01T09:01:33.109Z,4.28
2022-12-01T09:02:32.867Z,4.28
2022-12-01T09:03:32.770Z,3.79
2022-12-01T09:04:32.728Z,3.79
2022-12-01T09:05:32.756Z,2.57
2022-12-01T09:06:32.800Z,3.79
2022-12-01T09:07:32.870Z,3.43
2022-12-01T09:08:37.996Z,2.94
2022-12-01T09:09:42.055Z,2.08
2022-12-01T09:10:45.994Z,3.43
2022-12-01T09:11:50.032Z,2.94
2022-12-01T09:12:54.103Z,3.43
2022-12-01T09:13:58.005Z,3.43
2022-12-01T09:15:02.093Z,2.94
2022-12-01T09:16:06.194Z,3.43
2022-12-01T09:17:10.013Z,3.43
2022-12-01T09:18:14.022Z,3.43
2022-12-01T09:19:23.731Z,3.79
2022-12-01T09:20:22.029Z,3.79
2022-12-01T09:21:27.884Z,3.79
2022-12-01T09:22:29.981Z,4.28
2022-12-01T09:23:32.767Z,4.28
2022-12-01T09:24:32.765Z,4.77
2022-12-01T09:25:32.798Z,5.14
2022-12-01T09:26:32.772Z,5.99
2022-12-01T09:27:32.762Z,5.99
2022-12-01T09:28:32.790Z,5.99
2022-12-01T09:29:32.769Z,5.99
2022-12-01T09:30:46.024Z,6.85
2022-12-01T09:31:49.995Z,5.99
2022-12-01T09:32:54.047Z,6.48
2022-12-01T09:33:59.033Z,5.63
2022-12-01T09:35:02.046Z,5.63
2022-12-01T09:36:06.146Z,5.14
2022-12-01T09:37:10.188Z,5.63
2022-12-01T09:38:14.011Z,6.48
2022-12-01T09:39:18.050Z,6.48
2022-12-01T09:40:22.284Z,6.85
2022-12-01T09:41:26.027Z,6.48
2022-12-01T09:42:35.185Z,7.7
2022-12-01T09:43:32.759Z,7.7
2022-12-01T09:44:32.723Z,8.19
2022-12-01T09:45:32.774Z,7.34
2022-12-01T09:46:32.830Z,8.19
2022-12-01T09:47:32.834Z,7.7
2022-12-01T09:48:32.730Z,6.85
2022-12-01T09:49:32.765Z,7.34
2022-12-01T09:50:32.727Z,7.7
2022-12-01T09:51:32.888Z,7.7
2022-12-01T09:52:32.774Z,6.85
2022-12-01T09:53:32.745Z,5.99
2022-12-01T09:54:32.726Z,6.85
2022-12-01T09:55:42.761Z,5.99
2022-12-01T09:56:32.788Z,5.99
2022-12-01T09:57:32.756Z,6.48
2022-12-01T09:58:32.752Z,5.63
2022-12-01T09:59:32.754Z,5.99
2022-12-01T10:00:32.844Z,6.48
2022-12-01T10:01:32.788Z,6.48
2022-12-01T10:02:32.898Z,5.63
2022-12-01T10:03:32.754Z,5.63
2022-12-01T10:04:32.920Z,5.14
2022-12-01T10:05:32.780Z,5.63
2022-12-01T10:06:32.828Z,5.14
2022-12-01T10:07:32.787Z,4.77
2022-12-01T10:08:32.744Z,5.14
2022-12-01T10:09:32.743Z,4.77
2022-12-01T10:10:32.764Z,3.79
2022-12-01T10:11:32.800Z,4.77
2022-12-01T10:12:32.752Z,5.63
2022-12-01T10:13:32.752Z,5.14
2022-12-01T10:14:32.902Z,5.14
2022-12-01T10:15:32.748Z,5.63
2022-12-01T10:16:32.821Z,5.14
2022-12-01T10:17:32.763Z,4.77
2022-12-01T10:18:32.831Z,5.63
2022-12-01T10:19:32.930Z,5.99
2022-12-01T10:20:32.722Z,5.99
2022-12-01T10:21:32.775Z,6.48
2022-12-01T10:22:32.766Z,6.85
2022-12-01T10:23:32.765Z,6.85
2022-12-01T10:24:32.769Z,6.48
2022-12-01T10:25:32.753Z,6.85
2022-12-01T10:26:32.797Z,6.48
2022-12-01T10:27:32.754Z,6.48
2022-12-01T10:28:32.773Z,5.99
2022-12-01T10:29:32.707Z,5.63
2022-12-01T10:30:32.777Z,5.99
2022-12-01T10:31:32.832Z,5.63
2022-12-01T10:32:32.778Z,5.99
2022-12-01T10:33:32.740Z,5.63
2022-12-01T10:34:32.757Z,5.14
2022-12-01T10:35:32.747Z,5.63
2022-12-01T10:36:32.759Z,3.79
2022-12-01T10:37:32.775Z,4.28
2022-12-01T10:38:32.773Z,3.79
2022-12-01T10:39:32.798Z,3.79
2022-12-01T10:40:32.748Z,3.79
2022-12-01T10:41:32.728Z,4.77
2022-12-01T10:42:32.759Z,3.79
2022-12-01T10:43:32.748Z,4.28
2022-12-01T10:44:32.794Z,4.77
2022-12-01T10:45:32.772Z,5.63
2022-12-01T10:46:32.750Z,5.63
2022-12-01T10:47:32.747Z,4.77
2022-12-01T10:48:32.750Z,5.99
2022-12-01T10:49:32.761Z,5.99
2022-12-01T10:50:32.736Z,6.48
2022-12-01T10:51:32.763Z,6.85
2022-12-01T10:52:32.754Z,8.19
2022-12-01T10:53:32.715Z,8.56
2022-12-01T10:54:32.828Z,9.05
2022-12-01T10:55:32.737Z,9.05
2022-12-01T10:56:32.797Z,8.19
2022-12-01T10:57:32.751Z,9.54
2022-12-01T10:58:32.758Z,9.05
2022-12-01T10:59:32.751Z,8.19
2022-12-01T11:01:32.920Z,8.19
2022-12-01T11:02:33.365Z,7.7
2022-12-01T11:03:32.990Z,8.19
2022-12-01T11:04:32.755Z,8.56
2022-12-01T11:05:32.731Z,8.19
2022-12-01T11:06:32.723Z,9.05
2022-12-01T11:07:32.912Z,10.39
2022-12-01T11:08:32.723Z,11.62
2022-12-01T11:09:32.740Z,12.48
2022-12-01T11:10:32.728Z,13.33
2022-12-01T11:11:32.853Z,14.31
2022-12-01T11:12:32.769Z,15.53
2022-12-01T11:13:32.877Z,15.17
2022-12-01T11:14:32.727Z,16.02
2022-12-01T11:15:32.785Z,15.53
2022-12-01T11:16:32.879Z,16.02
2022-12-01T11:17:32.770Z,16.88
2022-12-01T11:18:32.818Z,16.39
2022-12-01T11:19:32.947Z,16.02
2022-12-01T11:20:32.944Z,14.68
2022-12-01T11:21:32.706Z,12.97
2022-12-01T11:22:32.710Z,11.62
2022-12-01T11:23:32.773Z,9.54
2022-12-01T11:24:32.733Z,9.54
2022-12-01T11:25:32.727Z,9.91
2022-12-01T11:26:32.712Z,8.56
2022-12-01T11:27:32.727Z,9.05
2022-12-01T11:28:32.767Z,8.19
2022-12-01T11:29:32.820Z,8.56
2022-12-01T11:30:32.777Z,8.19
2022-12-01T11:31:32.795Z,8.19
2022-12-01T11:32:32.767Z,8.19
2022-12-01T11:33:32.769Z,8.56
2022-12-01T11:34:32.713Z,7.34
2022-12-01T11:35:32.842Z,6.85
2022-12-01T11:36:32.757Z,6.48
2022-12-01T11:37:32.765Z,7.34
2022-12-01T11:38:32.735Z,7.34
2022-12-01T11:39:32.748Z,6.48
2022-12-01T11:40:32.737Z,7.34
2022-12-01T11:41:32.753Z,5.99
2022-12-01T11:42:32.708Z,5.99
2022-12-01T11:43:32.737Z,6.85
2022-12-01T11:44:50.997Z,6.48
2022-12-01T11:45:32.833Z,6.48
2022-12-01T11:46:32.705Z,6.48
2022-12-01T11:47:32.842Z,5.99
2022-12-01T11:48:32.758Z,5.99
2022-12-01T11:49:32.799Z,5.63
2022-12-01T11:50:32.723Z,5.63
2022-12-01T11:51:32.756Z,5.14
2022-12-01T11:52:32.738Z,5.14
2022-12-01T11:53:32.764Z,4.77
2022-12-01T11:54:32.710Z,3.79
2022-12-01T11:55:32.731Z,4.28
2022-12-01T11:56:32.771Z,3.43
2022-12-01T11:57:34.657Z,2.08
2022-12-01T11:58:32.765Z,2.08
2022-12-01T11:59:32.736Z,2.57
2022-12-01T12:00:32.753Z,1.71
2022-12-01T12:01:32.732Z,1.22
2022-12-01T12:02:32.789Z,1.71
2022-12-01T12:03:32.838Z,2.08
2022-12-01T12:04:32.769Z,2.57
2022-12-01T12:05:32.737Z,2.08
2022-12-01T12:06:39.812Z,2.08
2022-12-01T12:07:32.821Z,2.57
2022-12-01T12:08:32.761Z,2.57
2022-12-01T12:09:32.717Z,3.79
2022-12-01T12:10:32.771Z,2.94
2022-12-01T12:11:32.710Z,2.57
2022-12-01T12:12:32.754Z,2.57
2022-12-01T12:13:33.109Z,2.57
2022-12-01T12:14:32.748Z,2.08
2022-12-01T12:15:32.698Z,2.08
2022-12-01T12:16:33.705Z,1.71
2022-12-01T12:17:32.842Z,0.85
2022-12-01T12:18:32.768Z,1.22
2022-12-01T12:19:34.000Z,0.36
2022-12-01T12:20:32.742Z,0
2022-12-01T12:21:33.791Z,0
2022-12-01T12:22:32.716Z,0
2022-12-01T12:23:32.722Z,0.85
2022-12-01T12:24:32.750Z,0
2022-12-01T12:25:32.709Z,0.36
2022-12-01T12:26:32.728Z,0.36
2022-12-01T12:27:32.724Z,0
2022-12-01T12:28:32.753Z,0.85
2022-12-01T12:29:32.736Z,0
2022-12-01T12:30:32.804Z,0
2022-12-01T12:31:32.716Z,0
2022-12-01T12:32:32.719Z,0
2022-12-01T12:33:32.717Z,0
2022-12-01T12:34:32.753Z,0
2022-12-01T12:35:32.726Z,0.36
2022-12-01T12:36:32.752Z,0
2022-12-01T12:37:32.789Z,0
2022-12-01T12:38:32.723Z,0.85
2022-12-01T12:39:32.709Z,0
2022-12-01T12:40:32.782Z,0.85
2022-12-01T12:41:32.739Z,0.85
2022-12-01T12:42:32.772Z,1.22
2022-12-01T12:43:32.701Z,0.85
2022-12-01T12:44:36.796Z,1.71
2022-12-01T12:45:32.727Z,2.94
2022-12-01T12:46:32.938Z,2.57
2022-12-01T12:47:32.720Z,2.57
2022-12-01T12:48:34.088Z,2.08
2022-12-01T12:49:32.744Z,1.22
2022-12-01T12:50:32.726Z,1.71
2022-12-01T12:51:32.699Z,1.71
2022-12-01T12:52:32.755Z,2.08
2022-12-01T12:53:32.733Z,1.71
2022-12-01T12:54:32.835Z,1.71
2022-12-01T12:55:32.690Z,1.22
2022-12-01T12:56:32.751Z,1.71
2022-12-01T12:57:32.731Z,1.22
2022-12-01T12:58:32.733Z,1.22
2022-12-01T12:59:32.707Z,0.85
2022-12-01T13:00:32.876Z,0.36
2022-12-01T13:01:32.848Z,0
2022-12-01T13:02:32.819Z,0.36
2022-12-01T13:03:34.219Z,0.36
2022-12-01T13:04:32.774Z,0.36
2022-12-01T13:05:32.820Z,0.36
2022-12-01T13:06:32.713Z,0.36
2022-12-01T13:07:32.795Z,0
2022-12-01T13:08:32.741Z,0.36
2022-12-01T13:09:32.749Z,0
2022-12-01T13:10:32.743Z,0
2022-12-01T13:11:32.733Z,0
2022-12-01T13:12:32.704Z,0
2022-12-01T13:13:32.748Z,0
2022-12-01T13:14:32.777Z,0
2022-12-01T13:15:32.806Z,0
2022-12-01T13:16:32.689Z,0
2022-12-01T13:17:32.739Z,0
2022-12-01T13:18:32.727Z,0
2022-12-01T13:19:32.824Z,0
2022-12-01T13:20:32.709Z,0
2022-12-01T13:21:32.801Z,0
2022-12-01T13:22:32.719Z,0
2022-12-01T13:23:32.738Z,0
2022-12-01T13:24:32.709Z,0
2022-12-01T13:25:32.752Z,0
2022-12-01T13:26:32.781Z,0
2022-12-01T13:27:32.761Z,0
2022-12-01T13:28:32.732Z,0
2022-12-01T13:29:32.711Z,0
2022-12-01T13:30:32.719Z,0
2022-12-01T13:31:32.814Z,0
2022-12-01T13:32:32.799Z,0
2022-12-01T13:33:32.718Z,0
2022-12-01T13:34:33.736Z,0
2022-12-01T13:35:32.725Z,0
2022-12-01T13:36:46.953Z,0
2022-12-01T13:37:32.744Z,0
2022-12-01T13:38:32.738Z,0
2022-12-01T13:39:32.747Z,0
2022-12-01T13:40:32.702Z,0
2022-12-01T13:41:32.731Z,0
2022-12-01T13:42:32.797Z,0
2022-12-01T13:43:32.747Z,0
2022-12-01T13:44:32.688Z,0
2022-12-01T13:45:32.733Z,0
2022-12-01T13:46:32.842Z,0
2022-12-01T13:47:32.764Z,0
2022-12-01T13:48:32.718Z,0
2022-12-01T13:49:33.468Z,0
2022-12-01T13:50:32.737Z,0
2022-12-01T13:51:32.743Z,0
2022-12-01T13:52:32.696Z,0
2022-12-01T13:53:32.740Z,0
2022-12-01T13:54:32.726Z,0
2022-12-01T13:55:32.733Z,0
2022-12-01T13:56:36.087Z,0
2022-12-01T13:57:32.731Z,0
2022-12-01T13:58:32.850Z,0
2022-12-01T13:59:32.721Z,0
2022-12-01T14:00:32.726Z,0
2022-12-01T14:01:32.956Z,0
2022-12-01T14:02:32.942Z,0
2022-12-01T14:03:32.821Z,0
2022-12-01T14:04:32.747Z,0
2022-12-01T14:05:32.741Z,0
2022-12-01T14:06:32.796Z,0
2022-12-01T14:07:32.775Z,0
2022-12-01T14:08:32.750Z,0
2022-12-01T14:09:32.726Z,0
2022-12-01T14:10:32.721Z,0
2022-12-01T14:11:32.740Z,0
2022-12-01T14:12:32.737Z,0
2022-12-01T14:13:32.731Z,0
2022-12-01T14:14:32.693Z,0
2022-12-01T14:15:32.716Z,0
2022-12-01T14:16:32.948Z,0
2022-12-01T14:17:32.807Z,0